createdAt,value
2018-08-08T00:02:24.180Z,16.60
2018-08-08T00:04:52.613Z,16.70
2018-08-08T00:07:20.995Z,16.70
2018-08-08T00:09:49.416Z,16.80
2018-08-08T00:12:17.897Z,16.80
2018-08-08T00:14:46.305Z,16.90
2018-08-08T00:17:14.672Z,16.90
2018-08-08T00:19:43.135Z,17.00
2018-08-08T00:22:11.545Z,17.00
2018-08-08T00:24:39.950Z,17.10
2018-08-08T00:27:08.403Z,17.10
2018-08-08T00:29:36.781Z,17.10
2018-08-08T00:32:05.125Z,17.20
2018-08-08T00:34:33.560Z,17.20
2018-08-08T00:37:02.186Z,17.30
2018-08-08T00:39:30.569Z,17.30
2018-08-08T00:41:58.969Z,17.30
2018-08-08T00:44:27.356Z,17.30
2018-08-08T00:46:55.839Z,17.30
2018-08-08T00:49:24.244Z,17.30
2018-08-08T00:51:52.640Z,17.30
2018-08-08T00:54:21.193Z,17.30
2018-08-08T00:56:49.632Z,17.30
2018-08-08T00:59:18.110Z,17.30
2018-08-08T01:01:46.755Z,17.30
2018-08-08T01:04:15.120Z,17.30
2018-08-08T01:06:43.539Z,17.30
2018-08-08T01:09:12.182Z,17.30
2018-08-08T01:11:40.577Z,17.40
2018-08-08T01:14:08.974Z,17.40
2018-08-08T01:16:37.666Z,17.40
2018-08-08T01:19:06.051Z,17.40
2018-08-08T01:21:34.490Z,17.40
2018-08-08T01:24:02.880Z,17.40
2018-08-08T01:26:31.240Z,17.40
2018-08-08T01:28:59.644Z,17.40
2018-08-08T01:31:28.089Z,17.40
2018-08-08T01:33:56.493Z,17.40
2018-08-08T01:36:24.860Z,17.30
2018-08-08T01:38:53.328Z,17.30
2018-08-08T01:41:21.803Z,17.30
2018-08-08T01:43:50.484Z,17.30
2018-08-08T01:46:18.907Z,17.30
2018-08-08T01:48:47.309Z,17.30
2018-08-08T01:51:15.748Z,17.30
2018-08-08T01:53:44.164Z,17.30
2018-08-08T01:56:12.628Z,17.30
2018-08-08T01:58:40.970Z,17.30
2018-08-08T02:01:09.379Z,17.30
2018-08-08T02:03:37.816Z,17.30
2018-08-08T02:06:06.230Z,17.30
2018-08-08T02:08:34.755Z,17.30
2018-08-08T02:11:03.154Z,17.30
2018-08-08T02:13:31.691Z,17.30
2018-08-08T02:16:00.097Z,17.20
2018-08-08T02:18:28.662Z,17.20
2018-08-08T02:20:57.082Z,17.10
2018-08-08T02:23:25.511Z,17.10
2018-08-08T02:25:53.860Z,17.10
2018-08-08T02:28:22.280Z,17.10
2018-08-08T02:30:50.739Z,17.10
2018-08-08T02:33:19.164Z,17.00
2018-08-08T02:35:47.583Z,17.00
2018-08-08T02:38:15.976Z,17.00
2018-08-08T02:40:44.483Z,16.90
2018-08-08T02:43:13.000Z,16.90
2018-08-08T02:45:41.396Z,16.90
2018-08-08T02:48:09.801Z,16.90
2018-08-08T02:50:38.163Z,16.90
2018-08-08T02:53:06.598Z,16.80
2018-08-08T02:55:35.000Z,16.70
2018-08-08T02:58:03.433Z,16.60
2018-08-08T03:00:31.840Z,16.60
2018-08-08T03:03:00.252Z,16.50
2018-08-08T03:05:28.608Z,16.50
2018-08-08T03:07:57.302Z,16.50
2018-08-08T03:10:25.744Z,16.50
2018-08-08T03:12:54.156Z,16.50
2018-08-08T03:15:22.580Z,16.40
2018-08-08T03:17:51.292Z,16.40
2018-08-08T03:20:20.240Z,16.40
2018-08-08T03:22:48.637Z,16.40
2018-08-08T03:25:18.084Z,16.50
2018-08-08T03:27:46.984Z,16.50
2018-08-08T03:30:18.682Z,16.50
2018-08-08T03:32:47.027Z,16.50
2018-08-08T03:35:15.833Z,16.50
2018-08-08T03:37:44.403Z,16.50
2018-08-08T03:40:13.934Z,16.50
2018-08-08T03:42:42.658Z,16.50
2018-08-08T03:45:12.432Z,16.40
2018-08-08T03:47:40.956Z,16.40
2018-08-08T03:50:10.574Z,16.40
2018-08-08T03:52:39.373Z,16.40
2018-08-08T03:55:09.173Z,16.40
2018-08-08T03:57:37.570Z,16.40
2018-08-08T04:00:09.251Z,16.40
2018-08-08T04:02:37.740Z,16.40
2018-08-08T04:05:06.604Z,16.40
2018-08-08T04:07:35.654Z,16.50
2018-08-08T04:10:04.589Z,16.50
2018-08-08T04:12:33.268Z,16.50
2018-08-08T04:15:01.638Z,16.60
2018-08-08T04:17:29.967Z,16.60
2018-08-08T04:19:59.668Z,16.70
2018-08-08T04:22:28.051Z,16.80
2018-08-08T04:24:56.483Z,16.80
2018-08-08T04:27:28.855Z,17.00
2018-08-08T04:29:57.969Z,17.10
2018-08-08T04:32:26.425Z,17.20
2018-08-08T04:34:54.815Z,17.30
2018-08-08T04:37:23.189Z,17.30
2018-08-08T04:39:51.711Z,17.40
2018-08-08T04:42:20.271Z,17.60
2018-08-08T04:44:48.714Z,17.80
2018-08-08T04:47:17.069Z,18.10
2018-08-08T04:49:45.525Z,18.50
2018-08-08T04:52:13.945Z,18.90
2018-08-08T04:54:42.382Z,19.10
2018-08-08T04:57:10.866Z,19.20
2018-08-08T04:59:39.908Z,19.20
2018-08-08T05:02:08.533Z,19.10
2018-08-08T05:04:37.045Z,19.10
2018-08-08T05:07:11.302Z,19.20
2018-08-08T05:09:39.995Z,19.30
2018-08-08T05:12:08.442Z,19.30
2018-08-08T05:14:36.872Z,19.40
2018-08-08T05:17:05.527Z,19.40
2018-08-08T05:19:33.944Z,19.40
2018-08-08T05:22:02.566Z,19.40
2018-08-08T05:24:31.314Z,19.40
2018-08-08T05:27:00.503Z,19.40
2018-08-08T05:29:29.040Z,19.40
2018-08-08T05:31:57.592Z,19.40
2018-08-08T05:34:26.210Z,19.40
2018-08-08T05:36:54.764Z,19.40
2018-08-08T05:39:23.174Z,19.30
2018-08-08T05:41:51.605Z,19.30
2018-08-08T05:44:20.061Z,19.30
2018-08-08T05:46:48.549Z,19.30
2018-08-08T05:49:17.048Z,19.20
2018-08-08T05:51:45.386Z,19.20
2018-08-08T05:54:13.833Z,19.20
2018-08-08T05:56:42.188Z,19.20
2018-08-08T05:59:10.565Z,19.20
2018-08-08T06:01:39.658Z,19.20
2018-08-08T06:04:07.928Z,19.30
2018-08-08T06:06:36.265Z,19.40
2018-08-08T06:09:06.958Z,19.50
2018-08-08T06:11:35.514Z,19.50
2018-08-08T06:14:05.206Z,19.50
2018-08-08T06:16:33.698Z,19.50
2018-08-08T06:19:02.023Z,19.50
2018-08-08T06:21:30.364Z,19.50
2018-08-08T06:23:58.947Z,19.50
2018-08-08T06:26:27.352Z,19.50
2018-08-08T06:28:55.818Z,19.60
2018-08-08T06:31:24.157Z,19.60
2018-08-08T06:33:52.581Z,19.70
2018-08-08T06:36:21.032Z,19.80
2018-08-08T06:38:49.448Z,19.80
2018-08-08T06:41:17.881Z,19.90
2018-08-08T06:43:46.320Z,19.90
2018-08-08T06:46:14.712Z,19.90
2018-08-08T06:48:43.156Z,20.00
2018-08-08T06:51:11.552Z,20.00
2018-08-08T06:53:40.025Z,20.10
2018-08-08T06:56:08.449Z,20.10
2018-08-08T06:58:36.812Z,20.20
2018-08-08T07:01:05.199Z,20.30
2018-08-08T07:03:33.558Z,20.50
2018-08-08T07:06:01.990Z,20.60
2018-08-08T07:08:30.468Z,20.80
2018-08-08T07:10:58.845Z,21.00
2018-08-08T07:13:27.197Z,21.20
2018-08-08T07:15:55.553Z,21.40
2018-08-08T07:18:23.966Z,21.60
2018-08-08T07:20:52.673Z,21.80
2018-08-08T07:23:21.305Z,22.00
2018-08-08T07:25:49.714Z,22.20
2018-08-08T07:28:18.149Z,22.20
2018-08-08T07:30:46.515Z,22.20
2018-08-08T07:33:14.872Z,22.20
2018-08-08T07:35:43.239Z,22.20
2018-08-08T07:38:11.589Z,22.20
2018-08-08T07:40:39.943Z,22.30
2018-08-08T07:43:08.312Z,22.50
2018-08-08T07:45:37.112Z,22.70
2018-08-08T07:48:05.666Z,23.30
2018-08-08T07:50:34.062Z,24.00
2018-08-08T07:53:02.474Z,24.60
2018-08-08T07:55:30.798Z,25.30
2018-08-08T07:57:59.404Z,25.90
2018-08-08T08:00:32.118Z,26.40
2018-08-08T08:03:01.504Z,26.80
2018-08-08T08:12:33.936Z,27.20
2018-08-08T08:15:02.478Z,27.90
2018-08-08T08:17:31.025Z,28.10
2018-08-08T08:19:59.415Z,28.40
2018-08-08T08:22:27.785Z,28.70
2018-08-08T08:24:58.381Z,29.00
2018-08-08T08:27:28.854Z,28.70
2018-08-08T08:29:57.608Z,28.80
2018-08-08T08:32:25.854Z,28.60
2018-08-08T08:34:54.168Z,28.60
2018-08-08T08:37:22.554Z,28.80
2018-08-08T08:39:51.017Z,28.90
2018-08-08T08:42:19.534Z,29.20
2018-08-08T08:44:47.985Z,29.40
2018-08-08T08:47:16.355Z,29.70
2018-08-08T08:49:44.714Z,29.90
2018-08-08T08:52:13.316Z,30.10
2018-08-08T08:54:42.026Z,30.20
2018-08-08T08:57:10.392Z,30.40
2018-08-08T08:59:38.771Z,30.60
2018-08-08T09:02:07.145Z,30.80
2018-08-08T09:04:35.469Z,31.00
2018-08-08T09:07:04.405Z,31.00
2018-08-08T09:09:32.779Z,31.20
2018-08-08T09:12:01.190Z,31.30
2018-08-08T09:14:29.533Z,31.30
2018-08-08T09:16:58.082Z,31.30
2018-08-08T09:19:26.405Z,31.40
2018-08-08T09:21:54.808Z,31.70
2018-08-08T09:24:23.115Z,31.90
2018-08-08T09:26:51.455Z,31.90
2018-08-08T09:29:19.949Z,32.00
2018-08-08T09:31:48.302Z,31.90
2018-08-08T09:34:16.659Z,31.80
2018-08-08T09:36:45.014Z,32.00
2018-08-08T09:39:13.402Z,32.20
2018-08-08T09:41:42.186Z,32.20
2018-08-08T09:44:10.578Z,31.80
2018-08-08T09:46:39.227Z,31.80
2018-08-08T09:49:07.875Z,32.20
2018-08-08T09:51:36.267Z,32.30
2018-08-08T09:54:04.664Z,32.10
2018-08-08T09:56:32.996Z,31.70
2018-08-08T09:59:01.599Z,31.20
2018-08-08T10:01:35.379Z,30.70
2018-08-08T10:04:09.002Z,30.50
2018-08-08T10:06:37.501Z,30.20
2018-08-08T10:09:06.787Z,29.80
2018-08-08T10:11:35.121Z,29.50
2018-08-08T10:14:03.501Z,29.30
2018-08-08T10:16:31.955Z,29.30
2018-08-08T10:19:00.435Z,29.30
2018-08-08T10:21:28.781Z,29.40
2018-08-08T10:23:57.116Z,29.50
2018-08-08T10:26:25.478Z,29.50
2018-08-08T10:28:53.857Z,29.50
2018-08-08T10:31:22.448Z,29.50
2018-08-08T10:33:50.987Z,29.50
2018-08-08T10:36:19.357Z,29.50
2018-08-08T10:38:47.738Z,29.50
2018-08-08T10:41:16.202Z,29.60
2018-08-08T10:43:44.708Z,29.70
2018-08-08T10:46:13.071Z,29.70
2018-08-08T10:48:41.509Z,29.80
2018-08-08T10:51:09.874Z,29.90
2018-08-08T10:53:38.264Z,29.90
2018-08-08T10:56:06.653Z,30.00
2018-08-08T10:58:35.027Z,30.10
2018-08-08T11:01:03.728Z,30.50
2018-08-08T11:03:32.130Z,31.10
2018-08-08T11:06:00.766Z,31.90
2018-08-08T11:08:29.412Z,32.70
2018-08-08T11:10:57.827Z,33.60
2018-08-08T11:13:26.191Z,34.20
2018-08-08T11:15:54.641Z,34.70
2018-08-08T11:18:23.299Z,34.90
2018-08-08T11:20:51.973Z,34.80
2018-08-08T11:23:20.292Z,34.50
2018-08-08T11:25:48.694Z,34.20
2018-08-08T11:28:17.109Z,34.20
2018-08-08T11:30:45.578Z,34.30
2018-08-08T11:33:13.900Z,34.40
2018-08-08T11:35:42.575Z,34.20
2018-08-08T11:38:11.062Z,33.90
2018-08-08T11:40:39.484Z,33.60
2018-08-08T11:43:07.897Z,33.40
2018-08-08T11:45:36.258Z,33.20
2018-08-08T11:48:05.362Z,33.10
2018-08-08T11:50:33.754Z,33.00
2018-08-08T11:53:02.523Z,33.10
2018-08-08T11:55:30.884Z,33.20
2018-08-08T11:57:59.391Z,33.60
2018-08-08T12:00:27.815Z,34.00
2018-08-08T12:02:56.431Z,34.40
2018-08-08T12:05:24.819Z,34.80
2018-08-08T12:07:59.846Z,34.90
2018-08-08T12:10:28.268Z,35.10
2018-08-08T12:12:56.621Z,35.50
2018-08-08T12:15:25.248Z,36.00
2018-08-08T12:17:53.622Z,36.10
2018-08-08T12:20:22.204Z,35.90
2018-08-08T12:22:50.676Z,35.90
2018-08-08T12:25:19.061Z,36.00
2018-08-08T12:27:47.561Z,36.30
2018-08-08T12:30:16.027Z,36.80
2018-08-08T12:32:44.430Z,37.20
2018-08-08T12:35:12.832Z,37.10
2018-08-08T12:37:41.167Z,37.00
2018-08-08T12:40:10.011Z,36.70
2018-08-08T12:42:38.657Z,35.70
2018-08-08T12:45:08.881Z,34.40
2018-08-08T12:47:37.296Z,33.30
2018-08-08T12:50:06.591Z,32.40
2018-08-08T12:52:34.979Z,31.80
2018-08-08T12:55:03.535Z,31.00
2018-08-08T12:57:32.030Z,30.50
2018-08-08T13:00:00.416Z,29.90
2018-08-08T13:02:29.072Z,29.20
2018-08-08T13:04:57.431Z,28.70
2018-08-08T13:07:25.808Z,28.40
2018-08-08T13:09:54.176Z,28.20
2018-08-08T13:12:22.563Z,28.20
2018-08-08T13:14:51.021Z,28.30
2018-08-08T13:17:19.393Z,28.50
2018-08-08T13:19:47.763Z,28.80
2018-08-08T13:22:16.139Z,29.20
2018-08-08T13:24:44.642Z,29.40
2018-08-08T13:27:13.107Z,29.60
2018-08-08T13:29:41.489Z,29.60
2018-08-08T13:32:09.932Z,29.50
2018-08-08T13:34:38.325Z,29.40
2018-08-08T13:37:06.733Z,29.20
2018-08-08T13:39:35.174Z,29.00
2018-08-08T13:42:03.538Z,29.00
2018-08-08T13:44:31.908Z,29.00
2018-08-08T13:47:00.788Z,29.10
2018-08-08T13:49:29.192Z,29.40
2018-08-08T13:51:57.543Z,29.50
2018-08-08T13:54:25.945Z,29.60
2018-08-08T13:56:54.351Z,29.70
2018-08-08T13:59:22.771Z,30.20
2018-08-08T14:01:51.118Z,30.80
2018-08-08T14:04:19.481Z,31.50
2018-08-08T14:06:47.819Z,32.30
2018-08-08T14:09:16.235Z,33.40
2018-08-08T14:11:44.750Z,34.70
2018-08-08T14:14:13.168Z,35.70
2018-08-08T14:16:41.476Z,36.40
2018-08-08T14:19:09.809Z,36.80
2018-08-08T14:21:38.264Z,36.90
2018-08-08T14:24:06.613Z,36.80
2018-08-08T14:26:35.063Z,36.50
2018-08-08T14:29:03.373Z,36.10
2018-08-08T14:31:31.700Z,36.30
2018-08-08T14:34:00.094Z,36.40
2018-08-08T14:36:28.443Z,35.60
2018-08-08T14:38:56.788Z,34.80
2018-08-08T14:41:25.109Z,34.00
2018-08-08T14:43:53.437Z,32.90
2018-08-08T14:46:21.860Z,32.10
2018-08-08T14:48:50.235Z,31.60
2018-08-08T14:51:18.665Z,31.10
2018-08-08T14:53:47.205Z,30.80
2018-08-08T14:56:15.536Z,30.70
2018-08-08T14:58:43.909Z,30.70
2018-08-08T15:01:12.319Z,30.60
2018-08-08T15:03:40.708Z,30.60
2018-08-08T15:06:09.107Z,30.50
2018-08-08T15:08:37.457Z,30.50
2018-08-08T15:11:05.770Z,30.40
2018-08-08T15:13:34.119Z,30.30
2018-08-08T15:16:02.494Z,30.40
2018-08-08T15:18:30.915Z,31.10
2018-08-08T15:20:59.251Z,32.50
2018-08-08T15:23:27.742Z,33.80
2018-08-08T15:25:56.186Z,34.80
2018-08-08T15:28:24.511Z,35.40
2018-08-08T15:30:52.866Z,35.90
2018-08-08T15:33:21.399Z,36.50
2018-08-08T15:35:49.731Z,36.50
2018-08-08T15:38:18.370Z,36.50
2018-08-08T15:40:46.857Z,36.40
2018-08-08T15:43:15.431Z,36.40
2018-08-08T15:45:43.791Z,36.40
2018-08-08T15:48:12.107Z,36.50
2018-08-08T15:50:40.479Z,36.70
2018-08-08T15:53:08.870Z,36.80
2018-08-08T15:55:37.233Z,37.00
2018-08-08T15:58:05.604Z,37.20
2018-08-08T16:00:33.897Z,37.40
2018-08-08T16:03:02.332Z,37.50
2018-08-08T16:05:30.669Z,37.40
2018-08-08T16:08:00.593Z,37.20
2018-08-08T16:10:30.000Z,36.90
2018-08-08T16:12:58.389Z,36.40
2018-08-08T16:15:26.888Z,36.10
2018-08-08T16:17:55.364Z,35.70
2018-08-08T16:20:23.699Z,35.10
2018-08-08T16:22:52.095Z,34.30
2018-08-08T16:25:20.458Z,33.40
2018-08-08T16:27:48.989Z,32.60
2018-08-08T16:30:17.383Z,31.90
2018-08-08T16:32:45.754Z,31.30
2018-08-08T16:35:14.379Z,30.90
2018-08-08T16:37:42.821Z,30.50
2018-08-08T16:40:11.246Z,30.10
2018-08-08T16:42:39.585Z,29.90
2018-08-08T16:45:09.583Z,29.60
2018-08-08T16:47:38.797Z,29.40
2018-08-08T16:50:08.088Z,29.10
2018-08-08T16:52:36.544Z,28.90
2018-08-08T16:55:05.721Z,28.60
2018-08-08T16:57:34.086Z,28.40
2018-08-08T17:00:02.612Z,28.30
2018-08-08T17:02:31.025Z,28.10
2018-08-08T17:04:59.765Z,28.10
2018-08-08T17:07:28.139Z,28.10
2018-08-08T17:09:56.687Z,28.00
2018-08-08T17:12:25.178Z,27.80
2018-08-08T17:14:53.719Z,27.70
2018-08-08T17:17:22.111Z,27.50
2018-08-08T17:19:50.714Z,27.40
2018-08-08T17:22:19.126Z,27.20
2018-08-08T17:24:47.850Z,27.10
2018-08-08T17:27:16.227Z,26.90
2018-08-08T17:29:44.659Z,26.80
2018-08-08T17:32:13.072Z,26.60
2018-08-08T17:34:43.660Z,26.50
2018-08-08T17:37:14.701Z,26.40
2018-08-08T17:39:43.532Z,26.30
2018-08-08T17:42:11.983Z,26.20
2018-08-08T17:44:40.783Z,26.10
2018-08-08T17:47:09.245Z,26.10
2018-08-08T17:49:37.585Z,26.10
2018-08-08T17:52:07.777Z,26.00
2018-08-08T17:54:42.879Z,26.00
2018-08-08T17:57:11.577Z,26.00
2018-08-08T17:59:39.978Z,25.80
2018-08-08T18:02:08.532Z,25.70
2018-08-08T18:04:37.142Z,25.60
2018-08-08T18:07:05.533Z,25.50
2018-08-08T18:09:33.958Z,25.40
2018-08-08T18:12:02.400Z,25.30
2018-08-08T18:14:30.851Z,25.20
2018-08-08T18:16:59.284Z,25.10
2018-08-08T18:19:27.643Z,25.00
2018-08-08T18:21:56.021Z,24.90
2018-08-08T18:24:24.377Z,24.80
2018-08-08T18:26:52.832Z,24.70
2018-08-08T18:29:21.236Z,24.60
2018-08-08T18:31:49.771Z,24.50
2018-08-08T18:34:18.645Z,24.40
2018-08-08T18:36:47.208Z,24.30
2018-08-08T18:39:15.595Z,24.20
2018-08-08T18:41:44.276Z,24.10
2018-08-08T18:44:12.679Z,24.00
2018-08-08T18:46:41.251Z,23.90
2018-08-08T18:49:09.704Z,23.80
2018-08-08T18:51:38.548Z,23.70
2018-08-08T18:54:07.485Z,23.60
2018-08-08T18:56:36.579Z,23.50
2018-08-08T18:59:05.055Z,23.40
2018-08-08T19:01:33.564Z,23.30
2018-08-08T19:04:02.006Z,23.20
2018-08-08T19:06:30.997Z,23.20
2018-08-08T19:09:00.165Z,23.10
2018-08-08T19:11:28.637Z,23.00
2018-08-08T19:14:02.390Z,22.90
2018-08-08T19:16:31.551Z,22.90
2018-08-08T19:19:00.052Z,22.80
2018-08-08T19:21:28.575Z,22.80
2018-08-08T19:23:57.129Z,22.70
2018-08-08T19:26:25.943Z,22.60
2018-08-08T19:28:54.481Z,22.60
2018-08-08T19:31:22.960Z,22.50
2018-08-08T19:33:52.007Z,22.50
2018-08-08T19:36:20.655Z,22.40
2018-08-08T19:38:49.560Z,22.40
2018-08-08T19:41:18.757Z,22.40
2018-08-08T19:43:48.001Z,22.30
2018-08-08T19:46:16.487Z,22.30
2018-08-08T19:48:44.961Z,22.20
2018-08-08T19:51:13.424Z,22.20
2018-08-08T19:53:41.857Z,22.10
2018-08-08T19:56:10.295Z,22.00
2018-08-08T19:58:38.717Z,22.00
2018-08-08T20:01:07.464Z,21.90
2018-08-08T20:03:35.992Z,21.90
2018-08-08T20:06:04.533Z,21.80
2018-08-08T20:08:33.954Z,21.70
2018-08-08T20:11:02.987Z,21.70
2018-08-08T20:13:31.805Z,21.60
2018-08-08T20:16:01.623Z,21.60
2018-08-08T20:18:30.047Z,21.50
2018-08-08T20:20:58.800Z,21.50
2018-08-08T20:23:27.206Z,21.40
2018-08-08T20:25:55.667Z,21.40
2018-08-08T20:28:24.175Z,21.30
2018-08-08T20:30:52.660Z,21.20
2018-08-08T20:33:21.514Z,21.20
2018-08-08T20:35:50.271Z,21.20
2018-08-08T20:38:19.153Z,21.10
2018-08-08T20:40:47.616Z,21.10
2018-08-08T20:43:16.130Z,21.10
2018-08-08T20:45:44.599Z,21.10
2018-08-08T20:48:13.001Z,21.00
2018-08-08T20:50:41.542Z,21.00
2018-08-08T20:53:10.008Z,20.90
2018-08-08T20:55:38.913Z,20.90
2018-08-08T20:58:07.420Z,20.90
2018-08-08T21:00:35.833Z,20.80
2018-08-08T21:03:04.518Z,20.80
2018-08-08T21:05:32.925Z,20.80
2018-08-08T21:08:01.432Z,20.80
2018-08-08T21:10:29.929Z,20.80
2018-08-08T21:12:58.288Z,20.80
2018-08-08T21:15:26.783Z,20.70
2018-08-08T21:17:55.236Z,20.70
2018-08-08T21:20:23.769Z,20.70
2018-08-08T21:22:52.159Z,20.70
2018-08-08T21:25:20.611Z,20.60
2018-08-08T21:27:49.084Z,20.50
2018-08-08T21:30:17.510Z,20.50
2018-08-08T21:32:45.867Z,20.50
2018-08-08T21:35:14.509Z,20.40
2018-08-08T21:37:43.096Z,20.40
2018-08-08T21:40:11.578Z,20.30
2018-08-08T21:42:40.009Z,20.30
2018-08-08T21:45:08.438Z,20.20
2018-08-08T21:47:36.939Z,20.20
2018-08-08T21:50:05.908Z,20.10
2018-08-08T21:52:34.387Z,20.00
2018-08-08T21:55:14.323Z,20.00
2018-08-08T21:57:54.369Z,20.00
2018-08-08T22:00:34.207Z,20.00
2018-08-08T22:03:13.886Z,20.00
2018-08-08T22:05:53.468Z,20.00
2018-08-08T22:08:33.167Z,20.00
2018-08-08T22:11:12.868Z,20.00
2018-08-08T22:13:52.704Z,19.90
2018-08-08T22:16:32.359Z,19.90
2018-08-08T22:19:38.359Z,19.80
2018-08-08T22:22:07.107Z,19.90
2018-08-08T22:24:35.566Z,19.90
2018-08-08T22:27:04.116Z,19.80
2018-08-08T22:29:32.592Z,19.80
2018-08-08T22:32:01.000Z,19.80
2018-08-08T22:34:30.681Z,19.70
2018-08-08T22:36:59.039Z,19.70
2018-08-08T22:39:27.414Z,19.70
2018-08-08T22:41:55.801Z,19.60
2018-08-08T22:44:24.155Z,19.60
2018-08-08T22:46:52.621Z,19.50
2018-08-08T22:49:21.103Z,19.50
2018-08-08T22:51:49.478Z,19.50
2018-08-08T22:54:17.971Z,19.50
2018-08-08T22:56:46.403Z,19.40
2018-08-08T22:59:14.808Z,19.40
2018-08-08T23:01:43.387Z,19.30
2018-08-08T23:04:11.910Z,19.30
2018-08-08T23:06:40.282Z,19.30
2018-08-08T23:09:09.712Z,19.20
2018-08-08T23:11:38.293Z,19.10
2018-08-08T23:14:07.134Z,19.10
2018-08-08T23:16:35.578Z,19.10
2018-08-08T23:19:04.242Z,19.10
2018-08-08T23:21:32.709Z,19.10
2018-08-08T23:24:01.091Z,19.00
2018-08-08T23:26:29.510Z,19.00
2018-08-08T23:28:57.958Z,19.00
2018-08-08T23:31:26.333Z,18.90
2018-08-08T23:33:54.935Z,18.90
2018-08-08T23:36:23.285Z,18.90
2018-08-08T23:38:51.649Z,18.90
2018-08-08T23:41:20.196Z,18.90
2018-08-08T23:43:48.560Z,18.90
2018-08-08T23:46:16.905Z,18.90
2018-08-08T23:48:45.397Z,18.90
2018-08-08T23:51:13.806Z,18.90
2018-08-08T23:53:42.288Z,18.90
2018-08-08T23:56:10.755Z,18.90
2018-08-08T23:58:39.118Z,18.90
